Private Wetterstation Nrnberg - Katzwang
Wetterdaten: November 2014
Datum Temp. A. Feuchte A. Luftdruck Regen Wind Richtung Taupunkt Windchill Windben
01.11.2014 10,0 C 81 % 1020 hPa 0,0 l/m 1,0 km/h O-NO 6,8 C 10,0 C 2,0 km/h
02.11.2014 9,4 C 81 % 1014 hPa 0,0 l/m 0,5 km/h NO 6,2 C 9,4 C 1,5 km/h
03.11.2014 10,3 C 77 % 1005 hPa 0,0 l/m 2,2 km/h NO 6,4 C 9,9 C 3,2 km/h
04.11.2014 8,5 C 79 % 994 hPa 0,0 l/m 2,6 km/h O-NO 4,9 C 8,0 C 3,6 km/h
05.11.2014 7,9 C 84 % 1001 hPa 6,2 l/m 5,3 km/h W-NW 5,4 C 7,7 C 6,3 km/h
06.11.2014 7,5 C 83 % 1011 hPa 3,6 l/m 0,0 km/h W-NW 4,8 C 7,5 C 1,0 km/h
07.11.2014 5,8 C 84 % 1008 hPa 0,0 l/m 2,9 km/h O-NO 3,2 C 4,9 C 3,9 km/h
08.11.2014 6,2 C 80 % 1011 hPa 0,0 l/m 0,7 km/h NO 3,0 C 6,2 C 1,7 km/h
09.11.2014 6,8 C 83 % 1008 hPa 0,0 l/m 4,1 km/h O-NO 4,2 C 6,7 C 5,1 km/h
10.11.2014 7,6 C 82 % 1011 hPa 0,0 l/m 0,0 km/h O 4,8 C 7,6 C 1,0 km/h
11.11.2014 7,1 C 82 % 1005 hPa 0,0 l/m 4,9 km/h O 4,3 C 6,0 C 5,9 km/h
12.11.2014 7,1 C 86 % 1003 hPa 0,0 l/m 0,0 km/h W-NW 4,9 C 7,1 C 1,0 km/h
13.11.2014 8,7 C 87 % 1011 hPa 0,0 l/m 0,0 km/h N-NO 6,7 C 8,7 C 1,0 km/h
14.11.2014 9,3 C 85 % 1007 hPa 0,0 l/m 6,6 km/h NO 6,9 C 8,4 C 7,6 km/h
15.11.2014 7,2 C 85 % 1000 hPa 0,0 l/m 0,0 km/h O 4,9 C 7,2 C 1,0 km/h
16.11.2014 6,6 C 84 % 1001 hPa 0,5 l/m 1,5 km/h W-NW 4,1 C 6,6 C 2,5 km/h
17.11.2014 3,8 C 85 % 1004 hPa 0,0 l/m 4,9 km/h O 1,5 C 2,1 C 6,5 km/h
18.11.2014 6,6 C 88 % 1004 hPa 20,2 l/m 1,5 km/h W-NW 4,7 C 6,6 C 2,5 km/h
19.11.2014 6,1 C 86 % 1018 hPa 1,6 l/m 0,0 km/h W-NW 4,0 C 6,1 C 1,0 km/h
20.11.2014 6,5 C 85 % 1023 hPa 0,0 l/m 0,0 km/h N-NO 4,2 C 6,5 C 1,0 km/h
21.11.2014 3,7 C 82 % 1020 hPa 0,0 l/m 4,3 km/h O-NO 0,9 C 2,9 C 5,3 km/h
22.11.2014 2,2 C 86 % 1020 hPa 0,0 l/m 0,0 km/h NO 0,1 C 2,2 C 1,0 km/h
23.11.2014 2,9 C 87 % 1020 hPa 0,0 l/m 13,4 km/h N-NO 0,8 C -2,5 C 15,4 km/h
24.11.2014 6,4 C 85 % 1021 hPa 0,0 l/m 0,0 km/h N-NO 4,1 C 6,4 C 1,0 km/h
25.11.2014 4,1 C 85 % 1021 hPa 0,0 l/m 4,4 km/h O 1,7 C 3,7 C 5,4 km/h
26.11.2014 2,4 C 82 % 1014 hPa 0,0 l/m 4,8 km/h NO -0,4 C 2,3 C 5,8 km/h
27.11.2014 4,3 C 83 % 1009 hPa 0,0 l/m 6,3 km/h O 1,6 C 2,8 C 7,3 km/h
28.11.2014 2,8 C 85 % 1011 hPa 0,0 l/m 6,5 km/h O-NO 0,4 C 2,2 C 7,5 km/h
29.11.2014 2,9 C 84 % 1012 hPa 0,0 l/m 7,2 km/h O 0,4 C 1,0 C 8,2 km/h
30.11.2014 2,5 C 85 % 1009 hPa 0,0 l/m 8,0 km/h O 0,2 C 1,1 C 9,0 km/h
Min-Datum 26.11.14 04.11.14 04.11.14 5 Tage 01.11.14 - 26.11.14 30.11.14 01.11.14
Min-Zeit 06:40 12:40 20:00 - 00:00 - 06:40 14:50 00:00
Minimum -1,9 C 66 % 992 hPa - 0,0 km/h - -3,8 C -9,2 C 1,0 km/h
Max-Datum 03.11.14 13.11.14 20.11.14 18.11.14 28.11.14 - 01.11.14 03.11.14 28.11.14
Max-Zeit 13:30 02:20 07:40 07:30 01:30 - 13:30 13:50 01:30
Maximum 17,2 C 88 % 1024 hPa 20,2 l/m 30,1 km/h
O-NO
- 11,7 C 16,9 C 35,9 km/h
O-NO
Durchschnitt 6,1 C 84 % 1010 hPa #32,1 l/m 3,1 km/h O 3,5 C 5,5 C 4,2 km/h

Durchschnitt Minimum Temp.3,4 C
Durchschnitt Maximum Temp.9,4 C